Tor Arne — LDOL — position and weather

sailwx.info

Track history (hours):
 
Tides and Currents Weather Stations Pressure Air Temp Water Temp Dewpoint Dewpoint Depression Visibility Wind Speed Wind Dir Waves Ship Positions

Tor Arne

Last reported at 2017-Dec-30 04:45 UTC. Time now 2018-Jan-22 06:44 UTC.
Position N 70°31' E 022°57'.
Warning: this ship's position is 23 days out of date.

Length 23 m; draft 2 m.

Type: . MMSI: 257007900.

Date/timePositionNaut miles runAvg speedWind from/ knotsBaromVisibWave heightAir tempDewpointWater temp
2017-Dec-30 04:45N 70°31' E 022°57'2 6.8
2017-Dec-30 04:26N 70°33' E 023°01'3 6.7
2017-Dec-30 03:55N 70°35' E 023°08'4 6.6
2017-Dec-30 03:15N 70°38' E 023°18'2 7.0
2017-Dec-30 03:00N 70°40' E 023°22'3 6.6
2017-Dec-30 02:30N 70°42' E 023°28'  
2017-Dec-27 02:23N 70°44' E 023°34'3 7.8
2017-Dec-27 02:00N 70°41' E 023°28'4 7.9
2017-Dec-27 01:29N 70°38' E 023°20'4 8.2
2017-Dec-27 01:00N 70°36' E 023°11'4 8.6
2017-Dec-27 00:30N 70°33' E 023°02'  
Track history (hours):
 
Tides and Currents Weather Stations Pressure Air Temp Water Temp Dewpoint Dewpoint Depression Visibility Wind Speed Wind Dir Waves Ship Positions

Tor Arne

Last reported at 2017-Dec-30 04:45 UTC. Time now 2018-Jan-22 06:44 UTC.
Position N 70°31' E 022°57'.
Warning: this ship's position is 23 days out of date.

Length 23 m; draft 2 m.

Type: . MMSI: 257007900.

Date/timePositionNaut miles runAvg speedWind from/ knotsBaromVisibWave heightAir tempDewpointWater temp
2017-Dec-30 04:45N 70°31' E 022°57'2 6.8
2017-Dec-30 04:26N 70°33' E 023°01'3 6.7
2017-Dec-30 03:55N 70°35' E 023°08'4 6.6
2017-Dec-30 03:15N 70°38' E 023°18'2 7.0
2017-Dec-30 03:00N 70°40' E 023°22'3 6.6
2017-Dec-30 02:30N 70°42' E 023°28'  
2017-Dec-27 02:23N 70°44' E 023°34'3 7.8
2017-Dec-27 02:00N 70°41' E 023°28'4 7.9
2017-Dec-27 01:29N 70°38' E 023°20'4 8.2
2017-Dec-27 01:00N 70°36' E 023°11'4 8.6
2017-Dec-27 00:30N 70°33' E 023°02'  

Dump ship's entire track history